Terminal Aerodrome Forecast
Issued by NWS Sterling, VA

Current Version | Previous Version | Graphics & Text | Print | Product List | Glossary On
Versions: 1 2 3 4 5 6 7 8 9 10 11 12 13 14 15 16 17 18 19 20 21 22 23
000
FTUS41 KLWX 261500 AAA
TAFDCA
TAF AMD
KDCA 261500Z 2615/2712 03012KT 5SM -SN SCT008 OVC015
     FM261600 01010KT P6SM BKN015
     FM262200 06003KT P6SM OVC020
     FM270900 36005KT 5SM -SN OVC020=

USA.gov is the U.S. government's official web portal to all federal, state and local government web resources and services.